sensor_id;sensor_type;location;lat;lon;timestamp;temperature;humidity
52471;DHT22;38382;53.160;7.026;2022-08-21T00:03:54;16.30;99.90
52471;DHT22;38382;53.160;7.026;2022-08-21T00:06:21;16.30;99.90
52471;DHT22;38382;53.160;7.026;2022-08-21T00:08:50;16.30;99.90
52471;DHT22;38382;53.160;7.026;2022-08-21T00:11:15;16.20;99.90
52471;DHT22;38382;53.160;7.026;2022-08-21T00:13:42;16.20;99.90
52471;DHT22;38382;53.160;7.026;2022-08-21T00:16:07;16.20;99.90
52471;DHT22;38382;53.160;7.026;2022-08-21T00:18:33;16.20;99.90
52471;DHT22;38382;53.160;7.026;2022-08-21T00:20:59;16.10;99.90
52471;DHT22;38382;53.160;7.026;2022-08-21T01:21:34;15.70;99.90
52471;DHT22;38382;53.160;7.026;2022-08-21T01:24:35;15.60;99.90
52471;DHT22;38382;53.160;7.026;2022-08-21T01:27:22;15.50;99.90
52471;DHT22;38382;53.160;7.026;2022-08-21T01:30:54;15.50;99.90
52471;DHT22;38382;53.160;7.026;2022-08-21T01:33:39;15.40;99.90
52471;DHT22;38382;53.160;7.026;2022-08-21T01:36:05;15.40;99.90
52471;DHT22;38382;53.160;7.026;2022-08-21T01:38:31;15.40;99.90
52471;DHT22;38382;53.160;7.026;2022-08-21T01:40:58;15.30;99.90
52471;DHT22;38382;53.160;7.026;2022-08-21T01:43:23;15.40;99.90
52471;DHT22;38382;53.160;7.026;2022-08-21T01:45:49;15.40;99.90
52471;DHT22;38382;53.160;7.026;2022-08-21T01:48:15;15.40;99.90
52471;DHT22;38382;53.160;7.026;2022-08-21T01:50:41;15.30;99.90
52471;DHT22;38382;53.160;7.026;2022-08-21T01:57:47;15.40;99.90
52471;DHT22;38382;53.160;7.026;2022-08-21T02:00:15;15.30;99.90
52471;DHT22;38382;53.160;7.026;2022-08-21T02:02:42;15.30;99.90
52471;DHT22;38382;53.160;7.026;2022-08-21T02:05:10;15.30;99.90
52471;DHT22;38382;53.160;7.026;2022-08-21T02:07:41;15.20;99.90
52471;DHT22;38382;53.160;7.026;2022-08-21T02:10:08;15.20;99.90
52471;DHT22;38382;53.160;7.026;2022-08-21T02:12:35;15.20;99.90
52471;DHT22;38382;53.160;7.026;2022-08-21T02:15:01;15.20;99.90
52471;DHT22;38382;53.160;7.026;2022-08-21T02:17:27;15.20;99.90
52471;DHT22;38382;53.160;7.026;2022-08-21T02:23:05;15.20;99.90
52471;DHT22;38382;53.160;7.026;2022-08-21T02:25:31;14.80;99.90
52471;DHT22;38382;53.160;7.026;2022-08-21T02:27:58;15.10;99.90
52471;DHT22;38382;53.160;7.026;2022-08-21T02:30:31;15.10;99.90
52471;DHT22;38382;53.160;7.026;2022-08-21T02:32:58;15.10;99.90
52471;DHT22;38382;53.160;7.026;2022-08-21T02:35:25;15.30;99.90
52471;DHT22;38382;53.160;7.026;2022-08-21T02:38:01;15.10;99.90
52471;DHT22;38382;53.160;7.026;2022-08-21T02:40:33;14.90;99.90
52471;DHT22;38382;53.160;7.026;2022-08-21T02:43:00;14.80;99.90
52471;DHT22;38382;53.160;7.026;2022-08-21T02:45:26;14.80;99.90
52471;DHT22;38382;53.160;7.026;2022-08-21T02:47:59;14.80;99.90
52471;DHT22;38382;53.160;7.026;2022-08-21T02:50:38;14.70;99.90
52471;DHT22;38382;53.160;7.026;2022-08-21T02:53:05;14.80;99.90
52471;DHT22;38382;53.160;7.026;2022-08-21T02:55:33;14.80;99.90
52471;DHT22;38382;53.160;7.026;2022-08-21T02:57:59;14.70;99.90
52471;DHT22;38382;53.160;7.026;2022-08-21T03:00:28;14.60;99.90
52471;DHT22;38382;53.160;7.026;2022-08-21T03:02:54;14.60;99.90
52471;DHT22;38382;53.160;7.026;2022-08-21T03:05:22;14.60;99.90
52471;DHT22;38382;53.160;7.026;2022-08-21T03:07:48;14.50;99.90
52471;DHT22;38382;53.160;7.026;2022-08-21T03:10:15;14.50;99.90
52471;DHT22;38382;53.160;7.026;2022-08-21T03:12:41;14.60;99.90
52471;DHT22;38382;53.160;7.026;2022-08-21T03:15:10;14.60;99.90
52471;DHT22;38382;53.160;7.026;2022-08-21T03:17:37;14.60;99.90
52471;DHT22;38382;53.160;7.026;2022-08-21T03:22:34;14.60;99.90
52471;DHT22;38382;53.160;7.026;2022-08-21T03:25:00;14.60;99.90
52471;DHT22;38382;53.160;7.026;2022-08-21T03:27:28;14.60;99.90
52471;DHT22;38382;53.160;7.026;2022-08-21T03:34:41;14.60;99.90
52471;DHT22;38382;53.160;7.026;2022-08-21T03:44:56;14.00;99.90
52471;DHT22;38382;53.160;7.026;2022-08-21T03:47:22;15.00;99.90
52471;DHT22;38382;53.160;7.026;2022-08-21T03:49:48;14.50;99.90
52471;DHT22;38382;53.160;7.026;2022-08-21T03:52:14;14.50;99.90
52471;DHT22;38382;53.160;7.026;2022-08-21T03:54:40;14.60;99.90
52471;DHT22;38382;53.160;7.026;2022-08-21T03:57:07;14.60;99.90
52471;DHT22;38382;53.160;7.026;2022-08-21T03:59:34;14.50;99.90
52471;DHT22;38382;53.160;7.026;2022-08-21T04:02:01;14.60;99.90
52471;DHT22;38382;53.160;7.026;2022-08-21T04:04:28;14.60;99.90
52471;DHT22;38382;53.160;7.026;2022-08-21T04:06:55;14.60;99.90
52471;DHT22;38382;53.160;7.026;2022-08-21T04:09:21;14.50;99.90
52471;DHT22;38382;53.160;7.026;2022-08-21T04:11:46;14.50;99.90
52471;DHT22;38382;53.160;7.026;2022-08-21T04:14:14;14.50;99.90
52471;DHT22;38382;53.160;7.026;2022-08-21T04:16:41;14.50;99.90
52471;DHT22;38382;53.160;7.026;2022-08-21T04:19:07;14.50;99.90
52471;DHT22;38382;53.160;7.026;2022-08-21T04:21:33;14.50;99.90
52471;DHT22;38382;53.160;7.026;2022-08-21T04:24:00;14.20;99.90
52471;DHT22;38382;53.160;7.026;2022-08-21T04:26:26;14.40;99.90
52471;DHT22;38382;53.160;7.026;2022-08-21T04:28:52;14.40;99.90
52471;DHT22;38382;53.160;7.026;2022-08-21T04:31:18;14.40;99.90
52471;DHT22;38382;53.160;7.026;2022-08-21T04:33:43;14.40;99.90
52471;DHT22;38382;53.160;7.026;2022-08-21T04:36:10;14.40;99.90
52471;DHT22;38382;53.160;7.026;2022-08-21T04:38:36;14.40;99.90
52471;DHT22;38382;53.160;7.026;2022-08-21T04:41:02;14.40;99.90
52471;DHT22;38382;53.160;7.026;2022-08-21T04:43:28;14.40;99.90
52471;DHT22;38382;53.160;7.026;2022-08-21T04:45:54;14.40;99.90
52471;DHT22;38382;53.160;7.026;2022-08-21T04:48:21;14.40;99.90
52471;DHT22;38382;53.160;7.026;2022-08-21T04:51:05;14.30;99.90
52471;DHT22;38382;53.160;7.026;2022-08-21T04:54:34;14.30;99.90
52471;DHT22;38382;53.160;7.026;2022-08-21T04:56:49;14.40;99.90
52471;DHT22;38382;53.160;7.026;2022-08-21T04:59:25;14.40;99.90
52471;DHT22;38382;53.160;7.026;2022-08-21T05:01:52;14.40;99.90
52471;DHT22;38382;53.160;7.026;2022-08-21T05:04:25;14.40;99.90
52471;DHT22;38382;53.160;7.026;2022-08-21T05:06:54;14.40;99.90
52471;DHT22;38382;53.160;7.026;2022-08-21T05:09:20;14.50;99.90
52471;DHT22;38382;53.160;7.026;2022-08-21T05:11:47;14.40;99.90
52471;DHT22;38382;53.160;7.026;2022-08-21T05:14:14;14.50;99.90
52471;DHT22;38382;53.160;7.026;2022-08-21T05:16:41;14.50;99.90
52471;DHT22;38382;53.160;7.026;2022-08-21T05:19:08;14.50;99.90
52471;DHT22;38382;53.160;7.026;2022-08-21T05:21:35;14.60;99.90
52471;DHT22;38382;53.160;7.026;2022-08-21T05:24:01;14.60;99.90
52471;DHT22;38382;53.160;7.026;2022-08-21T05:26:27;14.60;99.90
52471;DHT22;38382;53.160;7.026;2022-08-21T05:28:53;14.60;99.90
52471;DHT22;38382;53.160;7.026;2022-08-21T05:31:18;14.60;99.90
52471;DHT22;38382;53.160;7.026;2022-08-21T05:33:44;14.70;99.90
52471;DHT22;38382;53.160;7.026;2022-08-21T05:36:10;15.20;99.90
52471;DHT22;38382;53.160;7.026;2022-08-21T05:38:35;14.70;99.90
52471;DHT22;38382;53.160;7.026;2022-08-21T05:41:01;15.00;99.90
52471;DHT22;38382;53.160;7.026;2022-08-21T05:43:27;14.80;99.90
52471;DHT22;38382;53.160;7.026;2022-08-21T05:45:52;14.80;99.90
52471;DHT22;38382;53.160;7.026;2022-08-21T05:48:23;14.90;99.90
52471;DHT22;38382;53.160;7.026;2022-08-21T05:50:50;14.90;99.90
52471;DHT22;38382;53.160;7.026;2022-08-21T05:53:18;14.90;99.90
52471;DHT22;38382;53.160;7.026;2022-08-21T05:55:45;15.00;99.90
52471;DHT22;38382;53.160;7.026;2022-08-21T05:58:12;15.00;99.90
52471;DHT22;38382;53.160;7.026;2022-08-21T06:00:37;15.10;99.90
52471;DHT22;38382;53.160;7.026;2022-08-21T06:03:03;15.10;99.90
52471;DHT22;38382;53.160;7.026;2022-08-21T06:05:29;15.10;99.90
52471;DHT22;38382;53.160;7.026;2022-08-21T06:07:55;15.20;99.90
52471;DHT22;38382;53.160;7.026;2022-08-21T06:10:21;15.20;99.90
52471;DHT22;38382;53.160;7.026;2022-08-21T06:12:52;15.30;99.90
52471;DHT22;38382;53.160;7.026;2022-08-21T06:15:17;15.40;99.90
52471;DHT22;38382;53.160;7.026;2022-08-21T06:17:43;15.40;99.90
52471;DHT22;38382;53.160;7.026;2022-08-21T06:22:42;15.50;99.90
52471;DHT22;38382;53.160;7.026;2022-08-21T06:25:10;15.50;99.90
52471;DHT22;38382;53.160;7.026;2022-08-21T06:27:36;15.60;99.90
52471;DHT22;38382;53.160;7.026;2022-08-21T06:30:04;15.60;99.90
52471;DHT22;38382;53.160;7.026;2022-08-21T06:32:31;15.70;99.90
52471;DHT22;38382;53.160;7.026;2022-08-21T06:34:56;15.80;99.90
52471;DHT22;38382;53.160;7.026;2022-08-21T06:37:22;15.90;99.90
52471;DHT22;38382;53.160;7.026;2022-08-21T06:39:48;15.90;99.90
52471;DHT22;38382;53.160;7.026;2022-08-21T06:42:15;15.90;99.90
52471;DHT22;38382;53.160;7.026;2022-08-21T06:44:41;16.00;99.90
52471;DHT22;38382;53.160;7.026;2022-08-21T06:47:07;16.00;99.90
52471;DHT22;38382;53.160;7.026;2022-08-21T06:49:33;16.10;99.90
52471;DHT22;38382;53.160;7.026;2022-08-21T06:52:00;16.20;99.90
52471;DHT22;38382;53.160;7.026;2022-08-21T06:54:26;16.20;99.90
52471;DHT22;38382;53.160;7.026;2022-08-21T06:56:52;16.20;99.90
52471;DHT22;38382;53.160;7.026;2022-08-21T06:59:17;16.30;99.90
52471;DHT22;38382;53.160;7.026;2022-08-21T07:01:43;16.40;99.90
52471;DHT22;38382;53.160;7.026;2022-08-21T07:04:10;16.40;99.90
52471;DHT22;38382;53.160;7.026;2022-08-21T07:06:36;16.50;99.90
52471;DHT22;38382;53.160;7.026;2022-08-21T07:09:02;16.60;99.90
52471;DHT22;38382;53.160;7.026;2022-08-21T07:11:28;16.60;99.90
52471;DHT22;38382;53.160;7.026;2022-08-21T07:13:54;16.70;99.90
52471;DHT22;38382;53.160;7.026;2022-08-21T07:16:22;16.80;99.90
52471;DHT22;38382;53.160;7.026;2022-08-21T07:18:48;16.80;99.90
52471;DHT22;38382;53.160;7.026;2022-08-21T07:21:15;16.90;99.90
52471;DHT22;38382;53.160;7.026;2022-08-21T07:23:44;17.00;99.90
52471;DHT22;38382;53.160;7.026;2022-08-21T07:26:12;17.10;99.90
52471;DHT22;38382;53.160;7.026;2022-08-21T07:28:40;17.10;99.90
52471;DHT22;38382;53.160;7.026;2022-08-21T07:31:06;16.70;99.90
52471;DHT22;38382;53.160;7.026;2022-08-21T07:33:34;17.40;99.90
52471;DHT22;38382;53.160;7.026;2022-08-21T07:36:00;17.40;99.90
52471;DHT22;38382;53.160;7.026;2022-08-21T07:38:26;17.50;99.90
52471;DHT22;38382;53.160;7.026;2022-08-21T07:41:00;17.60;99.90
52471;DHT22;38382;53.160;7.026;2022-08-21T07:43:42;17.80;99.90
52471;DHT22;38382;53.160;7.026;2022-08-21T07:46:18;17.90;99.90
52471;DHT22;38382;53.160;7.026;2022-08-21T07:49:22;17.90;99.90
52471;DHT22;38382;53.160;7.026;2022-08-21T07:51:50;17.40;99.90
52471;DHT22;38382;53.160;7.026;2022-08-21T07:54:15;18.20;99.90
52471;DHT22;38382;53.160;7.026;2022-08-21T07:56:41;18.30;99.90
52471;DHT22;38382;53.160;7.026;2022-08-21T07:59:26;18.40;99.90
52471;DHT22;38382;53.160;7.026;2022-08-21T08:02:03;18.50;99.90
52471;DHT22;38382;53.160;7.026;2022-08-21T08:04:29;18.70;99.90
52471;DHT22;38382;53.160;7.026;2022-08-21T08:06:58;18.80;99.90
52471;DHT22;38382;53.160;7.026;2022-08-21T08:10:08;19.00;99.90
52471;DHT22;38382;53.160;7.026;2022-08-21T08:20:17;19.60;99.90
52471;DHT22;38382;53.160;7.026;2022-08-21T08:22:59;19.70;99.90
52471;DHT22;38382;53.160;7.026;2022-08-21T08:25:25;19.80;99.90
52471;DHT22;38382;53.160;7.026;2022-08-21T08:35:02;20.10;99.90
52471;DHT22;38382;53.160;7.026;2022-08-21T08:51:00;21.30;99.90
52471;DHT22;38382;53.160;7.026;2022-08-21T08:53:31;21.60;99.90
52471;DHT22;38382;53.160;7.026;2022-08-21T08:56:00;21.80;99.90
52471;DHT22;38382;53.160;7.026;2022-08-21T09:02:01;22.20;99.90
52471;DHT22;38382;53.160;7.026;2022-08-21T09:04:57;22.50;99.90
52471;DHT22;38382;53.160;7.026;2022-08-21T09:11:57;22.60;99.90
52471;DHT22;38382;53.160;7.026;2022-08-21T09:14:47;22.80;99.90
52471;DHT22;38382;53.160;7.026;2022-08-21T09:21:56;23.10;99.90
52471;DHT22;38382;53.160;7.026;2022-08-21T09:27:43;23.30;99.90
52471;DHT22;38382;53.160;7.026;2022-08-21T09:30:43;23.40;99.90
52471;DHT22;38382;53.160;7.026;2022-08-21T09:33:21;23.40;99.90
52471;DHT22;38382;53.160;7.026;2022-08-21T09:36:12;23.20;99.90
52471;DHT22;38382;53.160;7.026;2022-08-21T09:39:38;23.10;99.90
52471;DHT22;38382;53.160;7.026;2022-08-21T09:42:06;22.90;99.90
52471;DHT22;38382;53.160;7.026;2022-08-21T09:44:36;23.10;99.90
52471;DHT22;38382;53.160;7.026;2022-08-21T09:47:06;23.40;99.90
52471;DHT22;38382;53.160;7.026;2022-08-21T09:49:39;23.70;99.90
52471;DHT22;38382;53.160;7.026;2022-08-21T09:55:32;24.30;99.90
52471;DHT22;38382;53.160;7.026;2022-08-21T09:58:18;24.60;99.90
52471;DHT22;38382;53.160;7.026;2022-08-21T10:00:47;24.80;99.90
52471;DHT22;38382;53.160;7.026;2022-08-21T10:03:22;25.00;99.90
52471;DHT22;38382;53.160;7.026;2022-08-21T10:06:02;25.10;99.90
52471;DHT22;38382;53.160;7.026;2022-08-21T10:08:31;25.10;98.80
52471;DHT22;38382;53.160;7.026;2022-08-21T10:11:07;25.30;99.90
52471;DHT22;38382;53.160;7.026;2022-08-21T10:16:33;25.60;99.00
52471;DHT22;38382;53.160;7.026;2022-08-21T10:19:26;25.70;99.10
52471;DHT22;38382;53.160;7.026;2022-08-21T10:49:23;26.70;93.70
52471;DHT22;38382;53.160;7.026;2022-08-21T10:55:21;27.00;92.50
52471;DHT22;38382;53.160;7.026;2022-08-21T11:02:03;27.20;91.40
52471;DHT22;38382;53.160;7.026;2022-08-21T11:07:49;27.20;89.00
52471;DHT22;38382;53.160;7.026;2022-08-21T11:10:24;27.30;91.20
52471;DHT22;38382;53.160;7.026;2022-08-21T11:13:53;27.70;91.40
52471;DHT22;38382;53.160;7.026;2022-08-21T11:16:22;27.80;85.80
52471;DHT22;38382;53.160;7.026;2022-08-21T11:24:57;27.40;89.50
52471;DHT22;38382;53.160;7.026;2022-08-21T11:27:36;27.70;88.80
52471;DHT22;38382;53.160;7.026;2022-08-21T11:30:05;27.80;87.90
52471;DHT22;38382;53.160;7.026;2022-08-21T11:40:52;27.20;88.30
52471;DHT22;38382;53.160;7.026;2022-08-21T11:43:42;27.00;89.50
52471;DHT22;38382;53.160;7.026;2022-08-21T11:49:27;26.70;87.90
52471;DHT22;38382;53.160;7.026;2022-08-21T12:00:54;25.90;88.40
52471;DHT22;38382;53.160;7.026;2022-08-21T12:03:26;25.70;90.80
52471;DHT22;38382;53.160;7.026;2022-08-21T12:22:39;24.80;92.10
52471;DHT22;38382;53.160;7.026;2022-08-21T12:25:15;24.50;93.40
52471;DHT22;38382;53.160;7.026;2022-08-21T12:55:52;24.10;99.90
52471;DHT22;38382;53.160;7.026;2022-08-21T13:22:21;28.60;90.10
52471;DHT22;38382;53.160;7.026;2022-08-21T13:24:48;28.10;90.70
52471;DHT22;38382;53.160;7.026;2022-08-21T13:27:19;27.60;90.70
52471;DHT22;38382;53.160;7.026;2022-08-21T13:29:45;27.30;90.90
52471;DHT22;38382;53.160;7.026;2022-08-21T13:32:20;27.60;91.10
52471;DHT22;38382;53.160;7.026;2022-08-21T13:34:47;28.30;90.30
52471;DHT22;38382;53.160;7.026;2022-08-21T13:37:14;29.10;89.60
52471;DHT22;38382;53.160;7.026;2022-08-21T13:39:39;29.60;87.30
52471;DHT22;38382;53.160;7.026;2022-08-21T13:42:11;29.50;86.80
52471;DHT22;38382;53.160;7.026;2022-08-21T13:44:43;29.20;85.40
52471;DHT22;38382;53.160;7.026;2022-08-21T13:47:14;28.80;85.70
52471;DHT22;38382;53.160;7.026;2022-08-21T13:49:43;28.50;85.30
52471;DHT22;38382;53.160;7.026;2022-08-21T14:23:00;26.30;90.50
52471;DHT22;38382;53.160;7.026;2022-08-21T14:25:37;26.10;90.40
52471;DHT22;38382;53.160;7.026;2022-08-21T14:30:44;26.50;91.40
52471;DHT22;38382;53.160;7.026;2022-08-21T14:51:40;26.00;92.60
52471;DHT22;38382;53.160;7.026;2022-08-21T14:54:06;26.00;93.10
52471;DHT22;38382;53.160;7.026;2022-08-21T14:56:44;25.90;93.50
52471;DHT22;38382;53.160;7.026;2022-08-21T14:59:09;25.80;93.80
52471;DHT22;38382;53.160;7.026;2022-08-21T15:01:43;25.80;94.00
52471;DHT22;38382;53.160;7.026;2022-08-21T15:04:18;25.80;94.00
52471;DHT22;38382;53.160;7.026;2022-08-21T15:06:44;25.80;94.30
52471;DHT22;38382;53.160;7.026;2022-08-21T15:09:10;25.70;95.10
52471;DHT22;38382;53.160;7.026;2022-08-21T15:11:36;25.70;95.80
52471;DHT22;38382;53.160;7.026;2022-08-21T15:14:05;26.20;96.20
52471;DHT22;38382;53.160;7.026;2022-08-21T15:16:33;26.40;95.70
52471;DHT22;38382;53.160;7.026;2022-08-21T15:18:59;26.80;95.10
52471;DHT22;38382;53.160;7.026;2022-08-21T15:21:25;27.80;94.40
52471;DHT22;38382;53.160;7.026;2022-08-21T16:20:46;26.90;82.60
52471;DHT22;38382;53.160;7.026;2022-08-21T18:21:36;21.60;99.90
52471;DHT22;38382;53.160;7.026;2022-08-21T18:28:34;21.40;99.90
52471;DHT22;38382;53.160;7.026;2022-08-21T18:35:25;21.20;99.90
52471;DHT22;38382;53.160;7.026;2022-08-21T18:37:58;21.10;99.90
52471;DHT22;38382;53.160;7.026;2022-08-21T18:43:57;21.00;99.90
52471;DHT22;38382;53.160;7.026;2022-08-21T18:46:23;20.90;99.90
52471;DHT22;38382;53.160;7.026;2022-08-21T18:48:48;20.80;99.90
52471;DHT22;38382;53.160;7.026;2022-08-21T19:16:07;20.10;99.90
52471;DHT22;38382;53.160;7.026;2022-08-21T19:18:37;20.00;99.90
52471;DHT22;38382;53.160;7.026;2022-08-21T19:26:15;19.90;99.90
52471;DHT22;38382;53.160;7.026;2022-08-21T19:28:48;19.80;99.90
52471;DHT22;38382;53.160;7.026;2022-08-21T19:31:38;19.80;99.90
52471;DHT22;38382;53.160;7.026;2022-08-21T19:34:18;19.80;99.90
52471;DHT22;38382;53.160;7.026;2022-08-21T19:36:44;19.70;99.90
52471;DHT22;38382;53.160;7.026;2022-08-21T19:39:12;19.60;99.90
52471;DHT22;38382;53.160;7.026;2022-08-21T19:41:40;19.60;99.90
52471;DHT22;38382;53.160;7.026;2022-08-21T19:44:14;19.50;99.90
52471;DHT22;38382;53.160;7.026;2022-08-21T19:46:42;19.40;99.90
52471;DHT22;38382;53.160;7.026;2022-08-21T19:49:11;19.40;99.90
52471;DHT22;38382;53.160;7.026;2022-08-21T20:57:14;18.10;99.90
52471;DHT22;38382;53.160;7.026;2022-08-21T21:52:46;17.50;99.90
52471;DHT22;38382;53.160;7.026;2022-08-21T22:21:18;17.50;99.90
52471;DHT22;38382;53.160;7.026;2022-08-21T22:23:51;17.10;99.90
52471;DHT22;38382;53.160;7.026;2022-08-21T22:26:24;17.40;99.90
52471;DHT22;38382;53.160;7.026;2022-08-21T22:29:46;17.40;99.90
52471;DHT22;38382;53.160;7.026;2022-08-21T22:32:39;17.30;99.90
52471;DHT22;38382;53.160;7.026;2022-08-21T22:35:23;17.30;99.90
52471;DHT22;38382;53.160;7.026;2022-08-21T22:37:53;17.30;99.90
52471;DHT22;38382;53.160;7.026;2022-08-21T22:40:28;17.20;99.90
52471;DHT22;38382;53.160;7.026;2022-08-21T22:43:06;17.20;99.90
52471;DHT22;38382;53.160;7.026;2022-08-21T22:49:41;17.20;99.90
52471;DHT22;38382;53.160;7.026;2022-08-21T22:52:23;17.10;99.90
52471;DHT22;38382;53.160;7.026;2022-08-21T22:54:53;17.10;99.90
52471;DHT22;38382;53.160;7.026;2022-08-21T22:57:29;17.10;99.90
52471;DHT22;38382;53.160;7.026;2022-08-21T23:00:07;17.10;99.90
52471;DHT22;38382;53.160;7.026;2022-08-21T23:05:23;17.10;99.90
52471;DHT22;38382;53.160;7.026;2022-08-21T23:07:50;17.10;99.90
52471;DHT22;38382;53.160;7.026;2022-08-21T23:10:38;17.00;99.90
52471;DHT22;38382;53.160;7.026;2022-08-21T23:13:13;17.00;99.90
52471;DHT22;38382;53.160;7.026;2022-08-21T23:16:25;17.00;99.90
52471;DHT22;38382;53.160;7.026;2022-08-21T23:26:43;16.90;99.90
52471;DHT22;38382;53.160;7.026;2022-08-21T23:36:16;16.80;99.90
52471;DHT22;38382;53.160;7.026;2022-08-21T23:42:20;16.30;99.90
52471;DHT22;38382;53.160;7.026;2022-08-21T23:45:11;16.80;99.90
52471;DHT22;38382;53.160;7.026;2022-08-21T23:54:55;16.80;99.90
